Flag for USA

Past Weather in Fredericksburg, Virginia, USA — Yesterday and Last 2 Weeks

Currently: 35 °F. Overcast. (Weather station: Shannon Airport, USA). See more current weather

Past Weather in Fredericksburg — Graph

°F

Fredericksburg Temperature Yesterday

Maximum temperature yesterday: 50 °F (at 1:55 pm)
Minimum temperature yesterday: 31 °F (at 6:15 am)
Average temperature yesterday: 38 °F

High & Low Weather Summary for the Past Weeks

 TemperatureHumidityPressure
High55 °F (Jan 14, 3:15 pm)100% (Jan 4, 8:15 pm)30.34 "Hg (Jan 4, 8:15 pm)
Low25 °F (Jan 11, 4:55 am)31% (Jan 9, 2:15 pm)29.49 "Hg (Jan 16, 1:35 pm)
Average39 °F74%30.00 "Hg
* Reported Jan 4 11:35 am — Jan 18 8:35 pm, Fredericksburg. Weather by CustomWeather, © 2021

Note: Actual official high and low records may vary slightly from our data, if they occured in-between our weather recording intervals... More about our weather records

Fredericksburg Weather History for the Previous 24 Hours

Scroll right to see more
 ConditionsComfort  
Time TempWeatherWind HumidityBarometerVisibility
8:35 pm
Mon, Jan 18
38 °FPassing clouds.5 mph52%30.07 "Hg10 mi
8:15 pm39 °FPassing clouds.7 mph49%30.06 "Hg10 mi
7:55 pm40 °FPassing clouds.13 mph49%30.05 "Hg10 mi
7:35 pm40 °FPassing clouds.8 mph49%30.04 "Hg10 mi
7:15 pm41 °FOvercast.9 mph50%30.04 "Hg10 mi
6:55 pm41 °FOvercast.9 mph49%30.03 "Hg10 mi
6:35 pm41 °FOvercast.8 mph47%30.01 "Hg10 mi
6:15 pm41 °FOvercast.5 mph46%30.00 "Hg10 mi
5:55 pm42 °FOvercast.6 mph43%29.99 "Hg10 mi
5:35 pm42 °FOvercast.10 mph42%29.98 "Hg10 mi
5:15 pm42 °FOvercast.9 mph44%29.96 "Hg10 mi
4:55 pm43 °FPartly sunny.5 mph44%29.95 "Hg10 mi
4:35 pm43 °FScattered clouds.13 mph43%29.94 "Hg10 mi
4:15 pm44 °FScattered clouds.13 mph42%29.93 "Hg10 mi
3:55 pm44 °FSunny.12 mph42%29.91 "Hg10 mi
3:35 pm45 °FScattered clouds.15 mph42%29.90 "Hg10 mi
3:15 pm45 °FSunny.12 mph43%29.89 "Hg10 mi
2:55 pm43 °FScattered clouds.15 mph47%29.88 "Hg10 mi
2:35 pm44 °FPartly sunny.16 mph42%29.88 "Hg10 mi
2:15 pm45 °FMore clouds than sun.14 mph42%29.87 "Hg10 mi
1:55 pm46 °FBroken clouds.13 mph43%29.86 "Hg10 mi
1:35 pm46 °FBroken clouds.13 mph42%29.86 "Hg10 mi
1:15 pm45 °FPartly sunny.18 mph42%29.85 "Hg10 mi
12:55 pm46 °FBroken clouds.17 mph42%29.85 "Hg10 mi
12:35 pm45 °FMore clouds than sun.16 mph43%29.85 "Hg10 mi
12:15 pm44 °FOvercast.12 mph44%29.86 "Hg10 mi
11:55 am45 °FMore clouds than sun.17 mph46%29.86 "Hg10 mi
11:35 am46 °FMore clouds than sun.14 mph48%29.86 "Hg10 mi
11:15 am44 °FOvercast.10 mph51%29.87 "Hg10 mi
10:55 am44 °FOvercast.10 mph53%29.87 "Hg10 mi
10:35 am44 °FScattered clouds.13 mph55%29.87 "Hg10 mi
10:15 am42 °FScattered clouds.13 mph63%29.86 "Hg10 mi
9:55 am40 °FPartly sunny.9 mph69%29.87 "Hg10 mi
9:35 am39 °FOvercast.9 mph74%29.86 "Hg10 mi
9:15 am38 °FOvercast.7 mph80%29.85 "Hg10 mi
8:55 am36 °FOvercast.5 mph87%29.85 "Hg10 mi
8:35 am33 °FOvercast.5 mph100%29.84 "Hg10 mi
8:15 am32 °FOvercast.3 mph100%29.83 "Hg10 mi
7:15 am31 °FMostly cloudy.3 mph100%29.82 "Hg10 mi
6:55 am32 °FOvercast.No wind100%29.82 "Hg10 mi
6:35 am32 °FOvercast.No wind100%29.81 "Hg10 mi
6:15 am32 °FOvercast.3 mph100%29.81 "Hg10 mi
3:35 am30 °FOvercast.No wind100%29.79 "Hg10 mi
3:15 am29 °FPassing clouds.No wind100%29.79 "Hg10 mi
2:35 am31 °FPassing clouds.3 mph94%29.80 "Hg10 mi
2:15 am32 °FPassing clouds.5 mph95%29.79 "Hg10 mi
1:55 am32 °FOvercast.3 mph94%29.79 "Hg10 mi
1:35 am34 °FOvercast.No wind91%29.79 "Hg10 mi
1:15 am34 °FOvercast.No wind91%29.79 "Hg10 mi
12:55 am33 °FPassing clouds.5 mph87%29.79 "Hg10 mi
12:35 am35 °FPassing clouds.5 mph85%29.79 "Hg10 mi
12:15 am36 °FPassing clouds.7 mph84%29.79 "Hg10 mi
11:55 pm
Sun, Jan 17
35 °FPassing clouds.9 mph85%29.79 "Hg10 mi
11:35 pm35 °FClear.8 mph86%29.80 "Hg10 mi
11:15 pm34 °FPassing clouds.7 mph91%29.80 "Hg10 mi
10:55 pm32 °FPassing clouds.6 mph95%29.80 "Hg10 mi
10:35 pm32 °FClear.No wind95%29.80 "Hg10 mi
10:15 pm34 °FPassing clouds.No wind91%29.80 "Hg10 mi
Weather by CustomWeather, © 2021

See weather overview